createdAt,value
2023-02-11T00:00:42.621Z,3.99
2023-02-11T00:03:09.880Z,4.02
2023-02-11T00:05:36.637Z,4.06
2023-02-11T00:08:03.729Z,4.09
2023-02-11T00:10:30.454Z,4.13
2023-02-11T00:12:57.083Z,4.17
2023-02-11T00:15:23.682Z,4.21
2023-02-11T00:17:50.394Z,4.26
2023-02-11T00:20:17.239Z,4.31
2023-02-11T00:22:43.878Z,4.34
2023-02-11T00:25:10.521Z,4.37
2023-02-11T00:27:37.629Z,4.41
2023-02-11T00:30:05.418Z,4.44
2023-02-11T00:32:32.204Z,4.45
2023-02-11T00:34:58.873Z,4.47
2023-02-11T00:37:25.561Z,4.49
2023-02-11T00:39:52.292Z,4.50
2023-02-11T00:42:18.892Z,4.51
2023-02-11T00:44:45.656Z,4.53
2023-02-11T00:47:12.560Z,4.54
2023-02-11T00:49:40.478Z,4.57
2023-02-11T00:52:07.378Z,4.58
2023-02-11T00:54:34.596Z,4.45
2023-02-11T00:57:01.433Z,4.35
2023-02-11T00:59:28.371Z,4.23
2023-02-11T01:01:55.077Z,4.03
2023-02-11T01:04:21.808Z,3.84
2023-02-11T01:06:52.235Z,3.69
2023-02-11T01:09:21.216Z,3.55
2023-02-11T01:11:48.261Z,3.41
2023-02-11T01:14:15.062Z,3.27
2023-02-11T01:16:42.580Z,3.19
2023-02-11T01:19:09.817Z,3.12
2023-02-11T01:21:36.717Z,3.10
2023-02-11T01:24:03.645Z,3.08
2023-02-11T01:26:30.398Z,3.00
2023-02-11T01:29:00.140Z,2.83
2023-02-11T01:31:27.890Z,2.70
2023-02-11T01:33:54.674Z,2.62
2023-02-11T01:36:21.320Z,2.58
2023-02-11T01:38:49.932Z,2.55
2023-02-11T01:41:16.746Z,2.51
2023-02-11T01:43:50.160Z,2.46
2023-02-11T01:46:31.930Z,2.43
2023-02-11T01:49:07.432Z,2.37
2023-02-11T01:51:39.491Z,2.29
2023-02-11T01:54:27.709Z,2.25
2023-02-11T01:57:17.123Z,2.20
2023-02-11T01:59:54.889Z,2.11
2023-02-11T02:02:27.285Z,1.97
2023-02-11T02:04:57.564Z,1.91
2023-02-11T02:07:46.078Z,1.89
2023-02-11T02:10:18.840Z,1.88
2023-02-11T02:12:46.371Z,1.87
2023-02-11T02:15:20.447Z,1.87
2023-02-11T02:17:58.759Z,1.86
2023-02-11T02:20:47.123Z,1.85
2023-02-11T02:23:39.747Z,1.77
2023-02-11T02:26:31.400Z,1.72
2023-02-11T02:29:19.299Z,1.71
2023-02-11T02:32:03.853Z,1.72
2023-02-11T02:34:42.150Z,1.71
2023-02-11T02:37:17.381Z,1.69
2023-02-11T02:39:46.612Z,1.70
2023-02-11T02:42:14.517Z,1.71
2023-02-11T02:44:41.250Z,1.63
2023-02-11T02:47:07.868Z,1.59
2023-02-11T02:49:34.498Z,1.58
2023-02-11T02:52:18.550Z,1.57
2023-02-11T02:55:11.773Z,1.56
2023-02-11T02:57:50.415Z,1.57
2023-02-11T03:00:23.561Z,1.61
2023-02-11T03:02:59.386Z,1.63
2023-02-11T03:05:45.256Z,1.64
2023-02-11T03:08:30.559Z,1.65
2023-02-11T03:10:59.225Z,1.66
2023-02-11T03:13:33.571Z,1.66
2023-02-11T03:16:08.538Z,1.66
2023-02-11T03:18:38.249Z,1.64
2023-02-11T03:21:07.266Z,1.65
2023-02-11T03:23:41.361Z,1.65
2023-02-11T03:26:10.403Z,1.66
2023-02-11T03:28:52.579Z,1.64
2023-02-11T03:31:32.892Z,1.63
2023-02-11T03:34:08.750Z,1.63
2023-02-11T03:37:04.378Z,1.62
2023-02-11T03:39:37.770Z,1.61
2023-02-11T03:42:08.705Z,1.60
2023-02-11T03:44:42.092Z,1.58
2023-02-11T03:47:12.443Z,1.55
2023-02-11T03:49:42.540Z,1.52
2023-02-11T03:52:11.564Z,1.50
2023-02-11T03:54:42.253Z,1.48
2023-02-11T03:57:09.237Z,1.44
2023-02-11T03:59:51.374Z,1.40
2023-02-11T04:02:18.748Z,1.36
2023-02-11T04:04:46.375Z,1.32
2023-02-11T04:07:13.236Z,1.30
2023-02-11T04:09:39.894Z,1.30
2023-02-11T04:12:06.927Z,1.31
2023-02-11T04:14:33.709Z,1.32
2023-02-11T04:17:00.371Z,1.30
2023-02-11T04:19:27.042Z,1.27
2023-02-11T04:21:53.632Z,1.26
2023-02-11T04:24:20.296Z,1.24
2023-02-11T04:26:47.049Z,1.18
2023-02-11T04:29:13.687Z,1.13
2023-02-11T04:31:40.506Z,1.12
2023-02-11T04:34:07.114Z,1.13
2023-02-11T04:36:33.794Z,1.13
2023-02-11T04:39:00.524Z,1.12
2023-02-11T04:41:27.327Z,1.11
2023-02-11T04:43:53.938Z,1.09
2023-02-11T04:46:20.779Z,1.07
2023-02-11T04:48:47.475Z,1.06
2023-02-11T04:51:14.342Z,1.04
2023-02-11T04:53:41.334Z,1.01
2023-02-11T04:56:08.165Z,0.99
2023-02-11T04:58:34.936Z,0.98
2023-02-11T05:01:14.064Z,0.95
2023-02-11T05:03:41.232Z,0.95
2023-02-11T05:06:09.770Z,0.96
2023-02-11T05:08:36.382Z,0.98
2023-02-11T05:11:03.196Z,0.98
2023-02-11T05:13:30.189Z,0.97
2023-02-11T05:15:57.075Z,0.97
2023-02-11T05:18:24.086Z,0.97
2023-02-11T05:20:50.720Z,0.97
2023-02-11T05:23:17.371Z,0.98
2023-02-11T05:25:43.993Z,0.97
2023-02-11T05:28:10.680Z,0.99
2023-02-11T05:30:37.420Z,1.00
2023-02-11T05:33:04.116Z,1.00
2023-02-11T05:35:30.763Z,1.01
2023-02-11T05:37:57.403Z,0.99
2023-02-11T05:40:24.037Z,0.98
2023-02-11T05:42:50.705Z,0.97
2023-02-11T05:45:17.336Z,0.97
2023-02-11T05:47:43.922Z,0.97
2023-02-11T05:50:10.546Z,0.96
2023-02-11T05:52:37.238Z,0.97
2023-02-11T05:55:04.403Z,0.96
2023-02-11T05:57:30.997Z,0.97
2023-02-11T05:59:57.647Z,0.97
2023-02-11T06:02:24.449Z,0.97
2023-02-11T06:04:51.129Z,0.95
2023-02-11T06:07:19.705Z,0.95
2023-02-11T06:09:46.335Z,0.93
2023-02-11T06:12:13.119Z,0.93
2023-02-11T06:14:39.906Z,0.94
2023-02-11T06:17:06.619Z,0.95
2023-02-11T06:19:33.349Z,0.96
2023-02-11T06:22:00.108Z,0.97
2023-02-11T06:24:51.087Z,0.98
2023-02-11T06:27:13.994Z,1.00
2023-02-11T06:29:40.741Z,1.01
2023-02-11T06:32:10.089Z,1.04
2023-02-11T06:34:42.790Z,1.05
2023-02-11T06:37:09.428Z,1.06
2023-02-11T06:39:36.092Z,1.09
2023-02-11T06:42:02.800Z,1.11
2023-02-11T06:44:29.401Z,1.14
2023-02-11T06:46:55.955Z,1.17
2023-02-11T06:49:22.582Z,1.16
2023-02-11T06:51:49.188Z,1.19
2023-02-11T06:54:15.913Z,1.18
2023-02-11T06:56:42.554Z,1.16
2023-02-11T06:59:12.944Z,1.17
2023-02-11T07:01:39.565Z,1.20
2023-02-11T07:04:06.897Z,1.19
2023-02-11T07:06:34.020Z,1.17
2023-02-11T07:09:00.723Z,1.18
2023-02-11T07:11:29.151Z,1.21
2023-02-11T07:14:02.839Z,1.23
2023-02-11T07:16:29.977Z,1.26
2023-02-11T07:18:56.592Z,1.29
2023-02-11T07:21:24.389Z,1.34
2023-02-11T07:23:52.017Z,1.39
2023-02-11T07:26:23.009Z,1.44
2023-02-11T07:28:50.954Z,1.51
2023-02-11T07:31:27.837Z,1.61
2023-02-11T07:33:57.028Z,1.69
2023-02-11T07:36:23.819Z,1.77
2023-02-11T07:38:50.545Z,1.85
2023-02-11T07:41:21.345Z,1.93
2023-02-11T07:43:48.427Z,2.01
2023-02-11T07:46:20.896Z,2.10
2023-02-11T07:48:47.758Z,2.22
2023-02-11T07:51:20.519Z,2.37
2023-02-11T07:53:47.601Z,2.55
2023-02-11T07:56:15.879Z,2.72
2023-02-11T07:58:43.686Z,2.88
2023-02-11T08:01:12.875Z,3.07
2023-02-11T08:03:41.397Z,3.22
2023-02-11T08:06:11.222Z,3.37
2023-02-11T08:08:37.940Z,3.52
2023-02-11T08:11:13.155Z,3.70
2023-02-11T08:13:40.395Z,3.86
2023-02-11T08:16:07.998Z,4.00
2023-02-11T08:18:35.365Z,4.11
2023-02-11T08:21:06.739Z,4.19
2023-02-11T08:23:33.924Z,4.23
2023-02-11T08:26:05.376Z,4.28
2023-02-11T08:28:32.219Z,4.37
2023-02-11T08:31:04.637Z,4.43
2023-02-11T08:33:31.296Z,4.45
2023-02-11T08:35:57.947Z,4.43
2023-02-11T08:38:24.543Z,4.43
2023-02-11T08:40:51.429Z,4.49
2023-02-11T08:43:18.314Z,4.61
2023-02-11T08:45:45.070Z,4.77
2023-02-11T08:48:11.682Z,4.94
2023-02-11T08:50:39.782Z,5.15
2023-02-11T08:53:06.423Z,5.28
2023-02-11T08:55:33.033Z,5.29
2023-02-11T08:57:59.661Z,5.36
2023-02-11T09:00:26.305Z,5.49
2023-02-11T09:02:53.605Z,5.58
2023-02-11T09:05:20.208Z,5.57
2023-02-11T09:07:46.838Z,5.49
2023-02-11T09:10:13.510Z,5.41
2023-02-11T09:12:40.148Z,5.32
2023-02-11T09:15:07.259Z,5.20
2023-02-11T09:17:33.921Z,5.16
2023-02-11T09:20:00.814Z,5.24
2023-02-11T09:22:27.468Z,5.34
2023-02-11T09:24:54.115Z,5.46
2023-02-11T09:27:20.866Z,5.60
2023-02-11T09:29:47.541Z,5.71
2023-02-11T09:32:14.341Z,5.83
2023-02-11T09:34:41.426Z,5.96
2023-02-11T09:37:08.096Z,6.04
2023-02-11T09:39:34.723Z,6.13
2023-02-11T09:42:07.074Z,6.27
2023-02-11T09:44:35.504Z,6.52
2023-02-11T09:47:06.359Z,6.71
2023-02-11T09:49:59.056Z,6.77
2023-02-11T09:52:44.008Z,6.88
2023-02-11T09:55:37.744Z,6.90
2023-02-11T09:58:12.613Z,6.87
2023-02-11T10:00:52.907Z,6.86
2023-02-11T10:03:48.770Z,6.89
2023-02-11T10:06:40.286Z,6.76
2023-02-11T10:09:48.112Z,6.60
2023-02-11T10:12:20.649Z,6.51
2023-02-11T10:15:06.036Z,6.56
2023-02-11T10:17:48.186Z,6.59
2023-02-11T10:20:20.929Z,6.59
2023-02-11T10:22:54.568Z,6.55
2023-02-11T10:25:36.579Z,6.52
2023-02-11T10:28:19.700Z,6.60
2023-02-11T10:30:53.104Z,6.70
2023-02-11T10:33:47.911Z,6.75
2023-02-11T10:36:17.577Z,6.78
2023-02-11T10:38:45.289Z,6.89
2023-02-11T10:41:26.285Z,7.00
2023-02-11T10:43:53.035Z,7.04
2023-02-11T10:46:24.366Z,6.98
2023-02-11T10:48:54.020Z,6.86
2023-02-11T10:51:25.556Z,6.86
2023-02-11T10:54:04.276Z,6.83
2023-02-11T10:56:34.649Z,6.83
2023-02-11T10:59:20.343Z,6.91
2023-02-11T11:02:00.979Z,7.06
2023-02-11T11:04:30.904Z,7.31
2023-02-11T11:07:18.163Z,7.55
2023-02-11T11:10:02.558Z,7.81
2023-02-11T11:12:31.699Z,7.97
2023-02-11T11:14:59.936Z,8.13
2023-02-11T11:17:29.897Z,8.30
2023-02-11T11:20:20.414Z,8.54
2023-02-11T11:22:52.762Z,8.79
2023-02-11T11:25:30.614Z,9.00
2023-02-11T11:28:01.015Z,9.05
2023-02-11T11:30:34.059Z,9.13
2023-02-11T11:33:02.026Z,9.18
2023-02-11T11:35:33.066Z,9.12
2023-02-11T11:38:05.403Z,9.03
2023-02-11T11:40:34.218Z,9.01
2023-02-11T11:43:30.163Z,8.88
2023-02-11T11:45:59.688Z,8.70
2023-02-11T11:48:40.334Z,8.63
2023-02-11T11:51:12.159Z,8.52
2023-02-11T11:53:38.796Z,8.45
2023-02-11T11:56:19.978Z,8.47
2023-02-11T11:58:47.225Z,8.56
2023-02-11T12:01:38.177Z,8.74
2023-02-11T12:04:28.557Z,8.96
2023-02-11T12:07:25.714Z,9.22
2023-02-11T12:10:15.162Z,9.86
2023-02-11T12:12:55.924Z,10.14
2023-02-11T12:15:30.035Z,10.15
2023-02-11T12:18:24.828Z,10.08
2023-02-11T12:21:04.344Z,9.97
2023-02-11T12:24:07.434Z,9.75
2023-02-11T12:26:53.338Z,9.64
2023-02-11T12:29:31.942Z,9.54
2023-02-11T12:32:25.665Z,9.48
2023-02-11T12:35:01.661Z,9.45
2023-02-11T12:37:49.600Z,9.53
2023-02-11T12:40:20.135Z,9.56
2023-02-11T12:43:18.032Z,9.65
2023-02-11T12:46:00.955Z,9.82
2023-02-11T12:49:00.294Z,10.06
2023-02-11T12:51:42.101Z,10.25
2023-02-11T12:54:21.727Z,10.43
2023-02-11T12:57:07.456Z,10.65
2023-02-11T13:00:11.873Z,10.80
2023-02-11T13:02:49.624Z,10.92
2023-02-11T13:05:25.053Z,10.99
2023-02-11T13:07:56.038Z,11.06
2023-02-11T13:10:28.154Z,11.05
2023-02-11T13:13:16.088Z,11.08
2023-02-11T13:15:58.697Z,11.02
2023-02-11T13:19:16.833Z,10.99
2023-02-11T13:22:11.424Z,10.98
2023-02-11T13:25:06.151Z,10.97
2023-02-11T13:27:44.034Z,10.94
2023-02-11T13:30:28.182Z,10.92
2023-02-11T13:32:54.851Z,10.88
2023-02-11T13:35:32.329Z,10.84
2023-02-11T13:38:01.535Z,10.75
2023-02-11T13:40:39.599Z,10.60
2023-02-11T13:43:07.547Z,10.48
2023-02-11T13:45:38.641Z,10.39
2023-02-11T13:48:13.639Z,10.35
2023-02-11T13:50:48.481Z,10.26
2023-02-11T13:53:17.140Z,10.19
2023-02-11T13:55:47.389Z,10.12
2023-02-11T13:58:13.969Z,10.11
2023-02-11T14:00:40.596Z,10.07
2023-02-11T14:03:32.202Z,10.03
2023-02-11T14:06:26.742Z,9.98
2023-02-11T14:09:09.186Z,9.93
2023-02-11T14:11:41.902Z,9.90
2023-02-11T14:14:16.245Z,9.90
2023-02-11T14:16:58.258Z,9.91
2023-02-11T14:19:30.797Z,9.91
2023-02-11T14:22:04.318Z,9.91
2023-02-11T14:24:33.948Z,9.91
2023-02-11T14:27:00.483Z,9.89
2023-02-11T14:29:58.290Z,9.90
2023-02-11T14:32:56.008Z,9.91
2023-02-11T14:35:41.738Z,9.89
2023-02-11T14:38:35.796Z,9.89
2023-02-11T14:41:22.480Z,9.90
2023-02-11T14:43:53.069Z,9.90
2023-02-11T14:46:22.327Z,9.90
2023-02-11T14:48:53.396Z,9.90
2023-02-11T14:51:27.833Z,9.91
2023-02-11T14:54:15.289Z,9.90
2023-02-11T14:56:42.458Z,9.91
2023-02-11T14:59:21.205Z,9.91
2023-02-11T15:01:51.211Z,9.89
2023-02-11T15:04:32.874Z,9.88
2023-02-11T15:07:04.845Z,9.88
2023-02-11T15:09:41.297Z,9.88
2023-02-11T15:12:20.243Z,9.87
2023-02-11T15:14:49.590Z,9.87
2023-02-11T15:17:22.242Z,9.86
2023-02-11T15:19:53.275Z,9.84
2023-02-11T15:22:24.070Z,9.82
2023-02-11T15:25:03.999Z,9.81
2023-02-11T15:27:42.393Z,9.80
2023-02-11T15:30:24.591Z,9.78
2023-02-11T15:33:00.390Z,9.76
2023-02-11T15:35:28.800Z,9.75
2023-02-11T15:37:57.431Z,9.71
2023-02-11T15:40:30.170Z,9.69
2023-02-11T15:42:59.950Z,9.65
2023-02-11T15:45:32.694Z,9.63
2023-02-11T15:48:21.676Z,9.61
2023-02-11T15:50:52.966Z,9.57
2023-02-11T15:53:28.953Z,9.53
2023-02-11T15:56:17.619Z,9.50
2023-02-11T15:58:47.619Z,9.45
2023-02-11T16:01:14.499Z,9.40
2023-02-11T16:03:43.107Z,9.35
2023-02-11T16:06:25.005Z,9.31
2023-02-11T16:09:22.276Z,9.26
2023-02-11T16:11:48.913Z,9.21
2023-02-11T16:14:27.836Z,9.15
2023-02-11T16:16:56.015Z,9.09
2023-02-11T16:19:25.933Z,9.04
2023-02-11T16:21:54.396Z,8.99
2023-02-11T16:24:28.242Z,8.93
2023-02-11T16:27:03.420Z,8.87
2023-02-11T16:29:32.489Z,8.80
2023-02-11T16:32:09.334Z,8.74
2023-02-11T16:34:37.237Z,8.67
2023-02-11T16:37:05.554Z,8.62
2023-02-11T16:39:32.622Z,8.55
2023-02-11T16:42:00.444Z,8.46
2023-02-11T16:44:28.207Z,8.37
2023-02-11T16:46:55.813Z,8.27
2023-02-11T16:49:51.926Z,8.15
2023-02-11T16:52:20.328Z,8.04
2023-02-11T16:54:46.969Z,7.93
2023-02-11T16:57:15.879Z,7.84
2023-02-11T16:59:43.097Z,7.76
2023-02-11T17:02:22.930Z,7.68
2023-02-11T17:04:52.815Z,7.60
2023-02-11T17:07:19.548Z,7.54
2023-02-11T17:09:46.223Z,7.48
2023-02-11T17:12:12.873Z,7.40
2023-02-11T17:14:39.562Z,7.32
2023-02-11T17:17:06.357Z,7.25
2023-02-11T17:19:33.011Z,7.19
2023-02-11T17:21:59.604Z,7.15
2023-02-11T17:24:26.223Z,7.10
2023-02-11T17:26:52.996Z,7.05
2023-02-11T17:29:23.224Z,6.98
2023-02-11T17:31:53.927Z,6.91
2023-02-11T17:34:22.672Z,6.83
2023-02-11T17:36:49.443Z,6.77
2023-02-11T17:39:16.339Z,6.71
2023-02-11T17:41:43.023Z,6.66
2023-02-11T17:44:12.574Z,6.60
2023-02-11T17:46:39.442Z,6.55
2023-02-11T17:49:06.147Z,6.49
2023-02-11T17:51:35.086Z,6.45
2023-02-11T17:54:04.937Z,6.40
2023-02-11T17:56:33.271Z,6.36
2023-02-11T17:59:00.010Z,6.32
2023-02-11T18:01:28.144Z,6.29
2023-02-11T18:03:54.947Z,6.26
2023-02-11T18:06:21.963Z,6.23
2023-02-11T18:08:49.193Z,6.18
2023-02-11T18:11:16.438Z,6.14
2023-02-11T18:13:51.541Z,6.10
2023-02-11T18:16:18.292Z,6.07
2023-02-11T18:18:44.992Z,6.03
2023-02-11T18:21:16.157Z,6.00
2023-02-11T18:23:43.885Z,5.99
2023-02-11T18:26:12.792Z,5.97
2023-02-11T18:28:39.963Z,5.97
2023-02-11T18:31:07.979Z,5.97
2023-02-11T18:33:37.244Z,5.98
2023-02-11T18:36:08.804Z,5.96
2023-02-11T18:38:36.260Z,5.95
2023-02-11T18:41:04.186Z,5.91
2023-02-11T18:43:33.829Z,5.88
2023-02-11T18:46:02.185Z,5.84
2023-02-11T18:48:29.205Z,5.80
2023-02-11T18:50:56.077Z,5.76
2023-02-11T18:53:25.076Z,5.73
2023-02-11T18:55:53.710Z,5.69
2023-02-11T18:58:21.465Z,5.66
2023-02-11T19:00:49.244Z,5.62
2023-02-11T19:03:16.638Z,5.60
2023-02-11T19:05:48.850Z,5.57
2023-02-11T19:08:15.969Z,5.54
2023-02-11T19:10:44.861Z,5.49
2023-02-11T19:13:12.681Z,5.46
2023-02-11T19:15:46.348Z,5.43
2023-02-11T19:18:15.033Z,5.39
2023-02-11T19:20:43.463Z,5.34
2023-02-11T19:23:11.064Z,5.31
2023-02-11T19:25:38.236Z,5.27
2023-02-11T19:28:04.939Z,5.24
2023-02-11T19:30:31.811Z,5.22
2023-02-11T19:32:58.429Z,5.20
2023-02-11T19:35:25.606Z,5.18
2023-02-11T19:37:52.315Z,5.16
2023-02-11T19:40:21.227Z,5.14
2023-02-11T19:42:50.673Z,5.12
2023-02-11T19:45:17.481Z,5.09
2023-02-11T19:47:44.469Z,5.05
2023-02-11T19:50:11.624Z,5.01
2023-02-11T19:52:39.090Z,4.97
2023-02-11T19:55:06.394Z,4.95
2023-02-11T19:57:33.078Z,4.91
2023-02-11T19:59:59.759Z,4.87
2023-02-11T20:02:26.410Z,4.84
2023-02-11T20:04:53.096Z,4.81
2023-02-11T20:07:19.762Z,4.79
2023-02-11T20:09:46.364Z,4.76
2023-02-11T20:12:13.132Z,4.73
2023-02-11T20:14:39.750Z,4.72
2023-02-11T20:17:06.492Z,4.70
2023-02-11T20:19:33.143Z,4.68
2023-02-11T20:21:59.747Z,4.66
2023-02-11T20:24:26.590Z,4.65
2023-02-11T20:26:56.051Z,4.65
2023-02-11T20:29:24.515Z,4.64
2023-02-11T20:31:51.259Z,4.63
2023-02-11T20:34:18.297Z,4.61
2023-02-11T20:36:51.965Z,4.58
2023-02-11T20:39:22.025Z,4.55
2023-02-11T20:41:50.241Z,4.51
2023-02-11T20:44:16.908Z,4.48
2023-02-11T20:46:46.839Z,4.43
2023-02-11T20:49:22.539Z,4.38
2023-02-11T20:51:50.100Z,4.33
2023-02-11T20:54:19.424Z,4.28
2023-02-11T20:56:48.180Z,4.23
2023-02-11T20:59:16.904Z,4.20
2023-02-11T21:01:46.509Z,4.18
2023-02-11T21:04:18.547Z,4.14
2023-02-11T21:06:47.908Z,4.10
2023-02-11T21:09:17.431Z,4.09
2023-02-11T21:11:44.125Z,4.07
2023-02-11T21:14:12.634Z,4.06
2023-02-11T21:16:40.121Z,4.04
2023-02-11T21:19:07.557Z,4.02
2023-02-11T21:21:38.886Z,4.00
2023-02-11T21:24:06.914Z,3.98
2023-02-11T21:26:35.487Z,3.97
2023-02-11T21:29:03.983Z,3.95
2023-02-11T21:31:32.470Z,3.94
2023-02-11T21:34:02.083Z,3.93
2023-02-11T21:36:29.801Z,3.94
2023-02-11T21:38:56.756Z,3.91
2023-02-11T21:41:24.870Z,3.90
2023-02-11T21:43:52.336Z,3.89
2023-02-11T21:46:20.502Z,3.90
2023-02-11T21:48:48.191Z,3.90
2023-02-11T21:51:18.850Z,3.90
2023-02-11T21:53:46.002Z,3.91
2023-02-11T21:56:15.321Z,3.92
2023-02-11T21:58:42.310Z,3.92
2023-02-11T22:01:20.251Z,3.90
2023-02-11T22:03:47.319Z,3.90
2023-02-11T22:06:17.534Z,3.91
2023-02-11T22:08:44.758Z,3.92
2023-02-11T22:11:13.365Z,3.92
2023-02-11T22:13:41.380Z,3.91
2023-02-11T22:16:11.325Z,3.89
2023-02-11T22:18:38.327Z,3.87
2023-02-11T22:21:07.340Z,3.86
2023-02-11T22:23:34.670Z,3.83
2023-02-11T22:26:05.886Z,3.81
2023-02-11T22:28:33.081Z,3.78
2023-02-11T22:31:00.202Z,3.76
2023-02-11T22:33:28.682Z,3.74
2023-02-11T22:36:04.693Z,3.72
2023-02-11T22:38:33.255Z,3.70
2023-02-11T22:41:05.087Z,3.67
2023-02-11T22:43:31.927Z,3.67
2023-02-11T22:46:03.250Z,3.67
2023-02-11T22:48:30.390Z,3.66
2023-02-11T22:50:57.161Z,3.65
2023-02-11T22:53:25.646Z,3.64
2023-02-11T22:55:52.605Z,3.62
2023-02-11T22:58:19.432Z,3.60
2023-02-11T23:00:46.077Z,3.58
2023-02-11T23:03:13.469Z,3.57
2023-02-11T23:05:41.900Z,3.57
2023-02-11T23:08:10.708Z,3.56
2023-02-11T23:10:39.820Z,3.55
2023-02-11T23:13:07.707Z,3.56
2023-02-11T23:15:38.535Z,3.56
2023-02-11T23:18:05.461Z,3.56
2023-02-11T23:20:35.438Z,3.58
2023-02-11T23:23:03.072Z,3.58
2023-02-11T23:25:30.261Z,3.57
2023-02-11T23:27:57.658Z,3.53
2023-02-11T23:30:24.760Z,3.50
2023-02-11T23:32:52.328Z,3.47
2023-02-11T23:35:24.900Z,3.44
2023-02-11T23:37:54.174Z,3.42
2023-02-11T23:40:22.733Z,3.40
2023-02-11T23:42:49.336Z,3.37
2023-02-11T23:45:16.030Z,3.34
2023-02-11T23:47:42.716Z,3.31
2023-02-11T23:50:10.199Z,3.28
2023-02-11T23:52:37.562Z,3.26
2023-02-11T23:55:05.051Z,3.23
2023-02-11T23:57:33.024Z,3.23
2023-02-11T23:59:59.669Z,3.21
